Time;durP1;ratioP1;P1;durP2;ratioP2;P2;SDS_P1;SDS_P2;PMS_P1;PMS_P2;Temp;Humidity;BMP_temperature;BMP_pressure;BME280_temperature;BME280_humidity;BME280_pressure;Samples;Min_cycle;Max_cycle;Signal;HPM_P1;HPM_P2
2023/12/30 00:03:02;;;;;;;12.95;6.30;;;;;;;15.71;100.00;101837.34;10650344;27;20053;-79
2023/12/30 00:08:24;;;;;;;10.00;6.55;;;;;;;15.44;100.00;101840.53;10621235;27;20057;-79
2023/12/30 00:13:47;;;;;;;11.15;6.43;;;;;;;15.37;100.00;101832.44;10595010;27;20104;-78
2023/12/30 00:19:12;;;;;;;10.55;7.00;;;;;;;15.46;100.00;101830.78;10615016;27;20570;-77
2023/12/30 00:24:35;;;;;;;9.68;6.43;;;;;;;15.39;100.00;101826.28;10597490;27;20039;-78
2023/12/30 00:29:57;;;;;;;8.00;6.03;;;;;;;15.29;100.00;101828.81;10637009;27;20054;-79
2023/12/30 00:35:23;;;;;;;10.90;6.70;;;;;;;15.15;100.00;101821.53;10605570;27;20039;-79
2023/12/30 00:40:46;;;;;;;10.88;6.25;;;;;;;14.96;100.00;101822.13;10618024;27;20077;-78
2023/12/30 00:46:09;;;;;;;10.48;6.10;;;;;;;14.90;100.00;101834.44;10611783;27;20050;-78
2023/12/30 00:51:33;;;;;;;13.15;7.97;;;;;;;14.88;100.00;101836.19;10617317;27;20095;-79
2023/12/30 00:56:56;;;;;;;11.90;7.45;;;;;;;15.06;100.00;101823.16;10620153;27;20050;-78
2023/12/30 01:02:18;;;;;;;10.05;7.03;;;;;;;15.00;100.00;101825.72;10597873;27;20232;-79
2023/12/30 01:07:42;;;;;;;15.20;9.00;;;;;;;14.81;100.00;101827.22;10599650;27;20082;-79
2023/12/30 01:13:06;;;;;;;13.27;7.72;;;;;;;14.56;100.00;101836.56;10639780;27;20553;-78
2023/12/30 01:18:30;;;;;;;12.55;7.65;;;;;;;14.66;100.00;101829.63;10604568;27;20134;-79
2023/12/30 01:23:54;;;;;;;12.70;7.80;;;;;;;14.74;100.00;101831.53;10603545;27;20627;-81
2023/12/30 01:29:16;;;;;;;11.77;6.80;;;;;;;14.91;100.00;101831.78;10606317;27;20043;-79
2023/12/30 01:34:39;;;;;;;12.40;7.80;;;;;;;15.04;100.00;101833.75;10613194;27;20390;-80
2023/12/30 01:40:03;;;;;;;11.60;7.82;;;;;;;15.08;100.00;101830.28;10617230;27;20050;-79
2023/12/30 01:45:26;;;;;;;14.20;6.85;;;;;;;15.09;100.00;101831.19;10607858;27;20133;-79
2023/12/30 01:50:49;;;;;;;8.95;6.07;;;;;;;14.91;100.00;101818.50;10607150;27;20047;-79
2023/12/30 01:56:15;;;;;;;10.00;6.15;;;;;;;14.86;100.00;101812.22;10614209;27;20047;-79
2023/12/30 02:01:37;;;;;;;13.20;7.47;;;;;;;14.81;100.00;101805.94;10604351;27;20503;-79
2023/12/30 02:07:00;;;;;;;13.23;8.00;;;;;;;14.60;100.00;101809.16;10607277;27;20043;-79
2023/12/30 02:12:24;;;;;;;10.95;6.43;;;;;;;14.39;100.00;101818.53;10609320;27;20050;-79
2023/12/30 02:17:47;;;;;;;10.60;6.63;;;;;;;14.34;100.00;101814.00;10593478;27;20054;-78
2023/12/30 02:23:11;;;;;;;10.10;6.18;;;;;;;14.14;100.00;101810.13;10609868;27;20578;-78
2023/12/30 02:28:33;;;;;;;10.70;6.88;;;;;;;14.07;100.00;101804.66;10622506;27;20051;-79
2023/12/30 02:33:56;;;;;;;13.07;8.45;;;;;;;14.03;100.00;101801.06;10597297;27;20050;-79
2023/12/30 02:39:20;;;;;;;10.95;7.47;;;;;;;13.93;100.00;101807.06;10615298;27;20055;-79
2023/12/30 02:44:43;;;;;;;8.95;6.22;;;;;;;13.82;100.00;101798.91;10606093;27;20039;-80
2023/12/30 02:50:06;;;;;;;8.43;5.85;;;;;;;13.70;100.00;101808.41;10639753;27;20058;-79
2023/12/30 02:55:30;;;;;;;10.75;6.45;;;;;;;13.62;100.00;101800.28;10589641;27;20772;-78
2023/12/30 03:00:54;;;;;;;10.15;6.55;;;;;;;13.59;100.00;101812.59;10601362;27;20132;-78
2023/12/30 03:06:16;;;;;;;10.25;5.50;;;;;;;13.85;100.00;101809.56;10607158;27;20058;-79
2023/12/30 03:11:42;;;;;;;6.85;4.68;;;;;;;14.13;100.00;101810.97;10622095;27;20080;-79
2023/12/30 03:17:04;;;;;;;9.50;5.30;;;;;;;14.52;100.00;101815.22;10611219;27;20051;-79
2023/12/30 03:22:27;;;;;;;7.22;4.55;;;;;;;14.75;100.00;101813.84;10627856;27;20390;-79
2023/12/30 03:27:51;;;;;;;8.50;5.45;;;;;;;14.93;100.00;101810.53;10610738;27;20046;-79
2023/12/30 03:33:13;;;;;;;8.90;6.00;;;;;;;14.90;100.00;101810.53;10611033;27;20047;-78
2023/12/30 03:38:37;;;;;;;8.65;4.93;;;;;;;14.92;100.00;101822.94;10624794;27;20072;-78
2023/12/30 03:44:01;;;;;;;6.13;4.38;;;;;;;14.99;100.00;101822.16;10620512;27;20043;-79
2023/12/30 03:49:23;;;;;;;8.75;4.70;;;;;;;15.12;100.00;101810.84;10575989;27;20050;-79
2023/12/30 03:54:47;;;;;;;6.78;4.65;;;;;;;15.20;100.00;101820.69;10629631;27;20499;-80
2023/12/30 04:00:12;;;;;;;7.22;4.97;;;;;;;15.30;100.00;101809.28;10589958;27;20119;-77
2023/12/30 04:05:36;;;;;;;5.85;4.32;;;;;;;15.45;100.00;101825.44;10628476;27;20487;-79
2023/12/30 04:10:59;;;;;;;7.90;5.00;;;;;;;15.35;100.00;101828.88;10630783;27;20101;-79
2023/12/30 04:16:23;;;;;;;13.93;6.28;;;;;;;15.31;100.00;101832.34;10624619;27;20151;-80
2023/12/30 04:21:45;;;;;;;11.60;6.00;;;;;;;15.40;100.00;101824.50;10600608;27;20734;-79
2023/12/30 04:27:08;;;;;;;10.57;6.55;;;;;;;15.43;100.00;101832.50;10615049;27;20118;-79
2023/12/30 04:32:33;;;;;;;9.43;5.95;;;;;;;15.50;100.00;101845.91;10608336;27;20501;-79
2023/12/30 04:37:55;;;;;;;15.73;9.80;;;;;;;15.54;100.00;101850.47;10599424;27;20046;-79
2023/12/30 04:43:18;;;;;;;9.40;5.90;;;;;;;15.46;100.00;101849.44;10608837;27;20402;-79
2023/12/30 04:48:42;;;;;;;8.93;5.28;;;;;;;15.45;100.00;101850.28;10636680;27;20055;-77
2023/12/30 04:54:05;;;;;;;10.25;6.47;;;;;;;15.33;100.00;101847.47;10608358;27;20080;-79
2023/12/30 04:59:28;;;;;;;8.13;5.22;;;;;;;15.02;100.00;101847.91;10598976;27;20130;-78
2023/12/30 05:04:53;;;;;;;6.65;3.95;;;;;;;14.79;100.00;101854.63;10611031;27;20126;-78
2023/12/30 05:10:15;;;;;;;6.68;5.32;;;;;;;14.63;100.00;101858.81;10589255;27;20088;-78
2023/12/30 05:15:38;;;;;;;12.35;6.82;;;;;;;14.57;100.00;101861.38;10628496;27;20146;-78
2023/12/30 05:21:02;;;;;;;9.48;5.72;;;;;;;14.94;100.00;101852.22;10627076;27;20043;-79
2023/12/30 05:26:25;;;;;;;22.63;19.10;;;;;;;15.30;100.00;101866.03;10615200;27;20062;-79
2023/12/30 05:31:48;;;;;;;13.80;8.50;;;;;;;15.42;100.00;101862.69;10596533;27;20050;-77
2023/12/30 05:37:12;;;;;;;14.02;11.43;;;;;;;15.46;100.00;101856.50;10622993;27;20142;-78
2023/12/30 05:42:35;;;;;;;14.98;13.00;;;;;;;15.62;100.00;101861.19;10589866;27;20070;-78
2023/12/30 05:47:57;;;;;;;11.85;7.93;;;;;;;15.88;100.00;101866.84;10605630;27;20070;-78
2023/12/30 05:53:22;;;;;;;21.50;16.48;;;;;;;16.05;100.00;101861.69;10623279;27;20042;-78
2023/12/30 05:58:44;;;;;;;21.15;15.02;;;;;;;16.23;100.00;101868.09;10647097;27;20053;-79
2023/12/30 06:04:09;;;;;;;30.15;23.48;;;;;;;16.32;100.00;101878.88;10645918;27;20130;-79
2023/12/30 06:09:33;;;;;;;24.92;21.33;;;;;;;16.43;100.00;101878.97;10646788;27;20046;-78
2023/12/30 06:14:56;;;;;;;39.35;30.38;;;;;;;16.56;100.00;101887.97;10646794;27;20057;-79
2023/12/30 06:20:19;;;;;;;15.85;10.52;;;;;;;16.63;100.00;101890.75;10630211;27;20054;-78
2023/12/30 06:25:43;;;;;;;9.70;7.03;;;;;;;16.65;100.00;101885.44;10624828;27;20043;-78
2023/12/30 06:31:05;;;;;;;7.18;4.63;;;;;;;16.54;100.00;101887.09;10602608;27;20050;-78
2023/12/30 06:36:28;;;;;;;6.95;4.28;;;;;;;16.57;100.00;101892.44;10632157;27;20050;-77
2023/12/30 06:41:52;;;;;;;43.75;35.45;;;;;;;16.74;100.00;101894.38;10610126;27;20039;-79
2023/12/30 06:47:14;;;;;;;39.25;33.55;;;;;;;16.89;100.00;101890.06;10613749;27;20047;-79
2023/12/30 06:52:37;;;;;;;41.50;35.08;;;;;;;17.23;100.00;101897.44;10616234;27;20067;-77
2023/12/30 06:58:01;;;;;;;56.80;47.60;;;;;;;17.56;100.00;101902.09;10643909;27;20107;-77
2023/12/30 07:03:23;;;;;;;47.97;40.53;;;;;;;18.03;100.00;101893.41;10599596;27;20047;-77
2023/12/30 07:08:46;;;;;;;26.02;20.67;;;;;;;18.66;100.00;101895.34;10589083;27;20081;-77
2023/12/30 07:14:10;;;;;;;53.53;41.22;;;;;;;20.07;100.00;101889.69;10603813;27;20550;-80
2023/12/30 07:19:32;;;;;;;40.13;33.63;;;;;;;24.32;99.43;101887.38;10615399;27;20399;-78
2023/12/30 07:24:55;;;;;;;15.70;11.20;;;;;;;24.62;90.74;101884.81;10626381;27;20372;-80
2023/12/30 07:30:22;;;;;;;12.82;10.68;;;;;;;22.88;100.00;101894.72;10629013;27;20061;-79
2023/12/30 07:35:44;;;;;;;7.43;4.45;;;;;;;23.19;100.00;101888.75;10594154;27;20039;-79
2023/12/30 07:41:07;;;;;;;6.00;3.28;;;;;;;25.37;86.10;101901.81;10606587;27;20533;-81
2023/12/30 07:46:31;;;;;;;8.98;8.07;;;;;;;25.77;78.53;101910.63;10623509;27;20103;-80
2023/12/30 07:51:55;;;;;;;4.32;2.90;;;;;;;24.02;90.58;101906.00;10601300;27;20075;-79
2023/12/30 07:57:18;;;;;;;5.32;2.35;;;;;;;24.78;82.08;101906.94;10627533;27;20058;-80
2023/12/30 08:02:44;;;;;;;4.70;2.22;;;;;;;27.54;61.45;101908.50;10586436;27;20555;-80
2023/12/30 08:08:08;;;;;;;4.40;2.25;;;;;;;27.24;54.85;101909.56;10599151;27;20351;-81
2023/12/30 08:13:30;;;;;;;5.95;2.28;;;;;;;25.96;56.76;101908.25;10603476;27;20134;-81
2023/12/30 08:18:55;;;;;;;4.30;2.03;;;;;;;26.09;56.45;101917.78;10616520;27;20156;-81
2023/12/30 08:24:19;;;;;;;5.30;2.60;;;;;;;25.43;58.29;101923.28;10638383;27;20057;-81
2023/12/30 08:29:41;;;;;;;7.13;5.18;;;;;;;23.89;67.60;101923.38;10588010;27;20035;-81
2023/12/30 08:35:07;;;;;;;11.13;6.20;;;;;;;23.11;68.77;101913.16;10618025;27;20099;-82
2023/12/30 08:40:30;;;;;;;12.77;7.60;;;;;;;23.10;70.85;101908.69;10606241;27;20043;-80
2023/12/30 08:45:52;;;;;;;16.35;12.05;;;;;;;25.84;55.49;101905.03;10605377;27;20514;-83
2023/12/30 08:51:18;;;;;;;6.38;4.35;;;;;;;27.94;45.80;101890.72;10645834;27;20046;-82
2023/12/30 08:56:41;;;;;;;19.45;10.60;;;;;;;31.62;37.72;101885.50;10604285;27;20074;-83
2023/12/30 09:02:03;;;;;;;4.38;3.20;;;;;;;30.97;37.95;101878.00;10634633;27;20054;-83
2023/12/30 09:07:27;;;;;;;5.28;4.45;;;;;;;33.06;34.33;101868.97;10600212;27;20047;-85
2023/12/30 09:12:50;;;;;;;3.70;2.45;;;;;;;33.35;31.19;101869.03;10581447;27;20047;-86
2023/12/30 09:18:12;;;;;;;5.05;3.05;;;;;;;33.75;30.77;101867.44;10582212;27;20286;-84
2023/12/30 09:23:38;;;;;;;7.60;3.00;;;;;;;31.94;31.08;101867.31;10601979;27;20043;-85
2023/12/30 09:29:01;;;;;;;4.63;2.85;;;;;;;28.49;36.57;101865.84;10585425;27;20731;-85
2023/12/30 09:34:23;;;;;;;5.22;3.55;;;;;;;27.68;38.34;101851.88;10582015;27;20054;-85
2023/12/30 09:39:47;;;;;;;5.05;3.17;;;;;;;26.69;39.79;101848.19;10606679;27;20062;-84
2023/12/30 09:45:14;;;;;;;21.30;18.77;;;;;;;27.16;40.07;101841.16;10602925;27;20047;-84
2023/12/30 09:50:36;;;;;;;12.82;9.68;;;;;;;31.29;32.37;101833.56;10599746;27;20126;-82
2023/12/30 09:56:00;;;;;;;4.78;2.13;;;;;;;28.61;34.87;101822.81;10592632;27;20043;-83
2023/12/30 10:01:23;;;;;;;14.93;13.45;;;;;;;27.18;37.42;101815.72;10589089;27;20050;-83
2023/12/30 10:06:48;;;;;;;11.02;9.88;;;;;;;26.48;38.93;101804.63;10613844;27;20035;-83
2023/12/30 10:12:12;;;;;;;6.82;5.03;;;;;;;26.53;39.08;101804.47;10596396;27;20047;-81
2023/12/30 10:17:35;;;;;;;7.95;4.55;;;;;;;27.31;37.03;101792.63;10589024;27;20047;-82
2023/12/30 10:22:57;;;;;;;15.60;9.45;;;;;;;26.24;38.56;101782.88;10604162;27;20039;-82
2023/12/30 10:28:21;;;;;;;3.55;2.15;;;;;;;25.33;40.94;101784.75;10596407;27;20058;-79
2023/12/30 10:33:44;;;;;;;2.50;1.88;;;;;;;26.66;38.01;101778.72;10607146;27;20475;-80
2023/12/30 10:39:08;;;;;;;13.63;6.93;;;;;;;25.97;39.53;101771.13;10602041;27;20054;-78
2023/12/30 10:44:33;;;;;;;4.32;2.20;;;;;;;24.57;42.29;101772.44;10590361;27;20479;-81
2023/12/30 10:50:04;;;;;;;4.88;2.10;;;;;;;24.18;43.20;101775.19;10593334;27;20499;-84
2023/12/30 10:55:32;;;;;;;3.50;1.40;;;;;;;24.06;43.41;101772.78;10598887;27;20061;-87
2023/12/30 11:01:00;;;;;;;4.60;2.53;;;;;;;24.58;42.67;101771.50;10606991;27;20047;-81
2023/12/30 11:06:28;;;;;;;7.15;5.03;;;;;;;24.75;42.92;101754.84;10574648;27;20042;-83
2023/12/30 11:11:56;;;;;;;9.60;4.43;;;;;;;24.59;44.05;101747.16;10593753;27;20054;-84
2023/12/30 11:17:43;;;;;;;6.80;4.90;;;;;;;24.18;44.96;101747.31;10613192;27;20054;-84
2023/12/30 11:23:06;;;;;;;4.70;3.25;;;;;;;24.60;44.56;101727.34;10616681;27;20054;-85
2023/12/30 11:28:33;;;;;;;4.72;2.33;;;;;;;24.66;44.63;101730.81;10584364;27;20043;-85
2023/12/30 11:33:59;;;;;;;3.70;2.13;;;;;;;24.42;45.77;101725.09;10619253;27;20051;-87
2023/12/30 11:39:28;;;;;;;7.00;4.90;;;;;;;24.38;47.11;101723.44;10612368;27;20758;-87
2023/12/30 11:44:54;;;;;;;3.97;2.35;;;;;;;24.13;48.40;101717.75;10621720;27;20420;-83
2023/12/30 11:50:18;;;;;;;6.18;2.42;;;;;;;23.57;51.16;101719.06;10599194;27;20051;-82
2023/12/30 11:55:41;;;;;;;5.68;1.98;;;;;;;23.12;54.54;101717.34;10628570;27;20043;-85
2023/12/30 12:01:04;;;;;;;5.82;2.03;;;;;;;22.78;57.85;101709.94;10609394;27;20063;-82
2023/12/30 12:06:28;;;;;;;5.57;3.65;;;;;;;22.64;60.66;101701.25;10609511;27;20498;-82
2023/12/30 12:11:51;;;;;;;8.98;7.03;;;;;;;22.54;61.84;101697.84;10579716;27;20051;-82
2023/12/30 12:17:13;;;;;;;6.35;2.03;;;;;;;22.52;61.74;101696.97;10606925;27;20058;-81
2023/12/30 12:22:38;;;;;;;4.45;2.15;;;;;;;22.13;62.02;101700.38;10600734;27;20043;-81
2023/12/30 12:28:00;;;;;;;2.47;1.95;;;;;;;21.67;64.43;101710.94;10607260;27;20058;-82
2023/12/30 12:33:24;;;;;;;3.17;2.13;;;;;;;21.28;69.43;101709.69;10602639;27;20073;-82
2023/12/30 12:38:49;;;;;;;4.57;2.20;;;;;;;21.00;74.31;101701.94;10591626;27;20082;-79
2023/12/30 12:44:12;;;;;;;3.95;1.98;;;;;;;20.91;75.66;101690.44;10606963;27;20111;-80
2023/12/30 12:49:35;;;;;;;5.30;2.00;;;;;;;20.80;77.37;101703.13;10606420;27;20047;-82
2023/12/30 12:54:59;;;;;;;7.65;2.50;;;;;;;20.67;79.27;101705.06;10607823;27;20510;-85
2023/12/30 13:00:25;;;;;;;3.40;2.30;;;;;;;20.64;79.58;101716.69;10635820;27;20050;-80
2023/12/30 13:05:47;;;;;;;6.97;4.63;;;;;;;20.49;81.27;101706.09;10587071;27;20133;-81
2023/12/30 13:11:13;;;;;;;20.60;14.43;;;;;;;20.51;80.64;101717.72;10600548;27;20061;-83
2023/12/30 13:16:35;;;;;;;16.40;7.43;;;;;;;20.55;79.66;101707.84;10603683;27;20133;-82
2023/12/30 13:21:58;;;;;;;10.50;6.28;;;;;;;20.54;79.20;101708.78;10598399;27;20304;-86
2023/12/30 13:27:29;;;;;;;10.07;6.30;;;;;;;20.58;79.46;101714.06;10611646;27;20379;-85
2023/12/30 13:32:56;;;;;;;18.38;10.80;;;;;;;20.46;82.22;101706.16;10594436;27;20137;-80
2023/12/30 13:38:23;;;;;;;18.33;10.30;;;;;;;20.40;85.78;101702.66;10605191;27;20058;-82
2023/12/30 13:43:51;;;;;;;17.20;12.57;;;;;;;20.25;88.46;101709.88;10599742;27;20140;-81
2023/12/30 13:49:47;;;;;;;;;;;;;;;20.29;88.18;101716.09;10597470;27;20058;-81
2023/12/30 13:55:13;;;;;;;27.50;16.98;;;;;;;20.08;92.05;101703.78;10600812;27;19926;-85
2023/12/30 14:00:39;;;;;;;37.33;25.42;;;;;;;19.85;98.64;101700.38;10612315;27;20054;-82
2023/12/30 14:06:05;;;;;;;41.58;24.55;;;;;;;19.64;100.00;101704.09;10591012;27;20054;-84
2023/12/30 14:11:33;;;;;;;16.75;11.90;;;;;;;19.39;100.00;101706.00;10589500;27;20761;-84
2023/12/30 14:16:59;;;;;;;17.42;10.38;;;;;;;19.17;100.00;101704.31;10599240;27;20066;-83
2023/12/30 14:22:22;;;;;;;16.48;10.10;;;;;;;19.22;100.00;101701.66;10604128;27;20289;-82
2023/12/30 14:27:45;;;;;;;21.52;15.35;;;;;;;19.25;100.00;101701.63;10611865;27;20443;-83
2023/12/30 14:33:09;;;;;;;35.70;19.67;;;;;;;19.08;100.00;101707.97;10610925;27;20090;-79
2023/12/30 14:38:31;;;;;;;19.30;12.35;;;;;;;19.00;100.00;101714.22;10584855;27;20059;-84
2023/12/30 14:43:54;;;;;;;10.02;7.40;;;;;;;18.89;100.00;101714.28;10585400;27;20035;-87
2023/12/30 14:49:18;;;;;;;7.65;5.97;;;;;;;18.78;100.00;101709.81;10606249;27;20505;-84
2023/12/30 14:54:41;;;;;;;13.60;7.65;;;;;;;18.76;100.00;101703.63;10590530;27;20063;-84
2023/12/30 15:00:06;;;;;;;11.52;9.27;;;;;;;18.73;100.00;101701.81;10618233;27;20126;-86
2023/12/30 15:05:32;;;;;;;13.00;7.28;;;;;;;18.60;100.00;101700.97;10599500;27;20058;-87
2023/12/30 15:10:55;;;;;;;10.32;7.93;;;;;;;18.56;100.00;101701.00;10586464;27;20499;-85
2023/12/30 15:16:18;;;;;;;9.10;8.20;;;;;;;18.44;100.00;101687.63;10592298;27;20053;-83
2023/12/30 15:21:43;;;;;;;10.52;7.68;;;;;;;18.23;100.00;101676.06;10616703;27;20162;-84
2023/12/30 15:27:06;;;;;;;25.60;18.15;;;;;;;18.16;100.00;101678.72;10620885;27;20502;-83
2023/12/30 15:32:29;;;;;;;22.23;16.35;;;;;;;18.06;100.00;101693.88;10612952;27;20066;-85
2023/12/30 15:37:53;;;;;;;19.67;14.25;;;;;;;17.90;100.00;101690.31;10573223;27;20035;-82
2023/12/30 15:43:16;;;;;;;15.88;12.48;;;;;;;17.68;100.00;101687.59;10588981;27;20050;-83
2023/12/30 15:48:38;;;;;;;10.90;9.18;;;;;;;17.50;100.00;101688.44;10596060;27;20049;-81
2023/12/30 15:54:03;;;;;;;10.52;7.28;;;;;;;17.34;100.00;101695.50;10617252;27;20039;-82
2023/12/30 15:59:25;;;;;;;18.50;12.27;;;;;;;17.39;100.00;101690.22;10592434;27;20047;-83
2023/12/30 16:04:48;;;;;;;29.40;17.50;;;;;;;17.39;100.00;101700.88;10593345;27;20131;-82
2023/12/30 16:10:12;;;;;;;29.90;20.63;;;;;;;17.36;100.00;101703.53;10601483;27;20054;-83
2023/12/30 16:15:34;;;;;;;44.40;39.67;;;;;;;17.40;100.00;101705.31;10616212;27;20059;-82
2023/12/30 16:20:57;;;;;;;68.13;61.42;;;;;;;17.44;100.00;101700.00;10606554;27;20043;-81
2023/12/30 16:26:22;;;;;;;31.73;22.42;;;;;;;17.43;100.00;101703.56;10596762;27;20043;-87
2023/12/30 16:31:45;;;;;;;35.90;32.28;;;;;;;17.38;100.00;101707.09;10612473;27;20058;-86
2023/12/30 16:37:08;;;;;;;42.67;38.60;;;;;;;17.40;100.00;101708.88;10608767;27;20084;-84
2023/12/30 16:42:35;;;;;;;32.20;28.15;;;;;;;17.42;100.00;101715.13;10592238;27;20449;-87
2023/12/30 16:47:59;;;;;;;32.67;26.52;;;;;;;17.47;100.00;101713.34;10592331;27;20498;-86
2023/12/30 16:53:22;;;;;;;24.85;20.13;;;;;;;17.36;100.00;101703.53;10625683;27;20069;-85
2023/12/30 16:58:46;;;;;;;23.38;15.25;;;;;;;17.11;100.00;101714.13;10602336;27;20560;-88
2023/12/30 17:04:09;;;;;;;9.70;6.35;;;;;;;17.07;100.00;101714.09;10607485;27;20050;-87
2023/12/30 17:09:32;;;;;;;9.52;6.55;;;;;;;17.04;100.00;101706.97;10605669;27;20045;-91
2023/12/30 17:14:56;;;;;;;98.40;51.72;;;;;;;16.98;100.00;101712.31;10612191;27;20467;-85
2023/12/30 17:20:19;;;;;;;41.15;30.38;;;;;;;16.88;100.00;101715.78;10588698;27;20058;-85
2023/12/30 17:25:42;;;;;;;36.30;32.50;;;;;;;16.76;100.00;101725.50;10603425;27;20047;-87
2023/12/30 17:31:08;;;;;;;26.95;22.05;;;;;;;16.62;100.00;101720.97;10637815;27;20043;-83
2023/12/30 17:36:30;;;;;;;26.55;22.08;;;;;;;16.62;100.00;101723.66;10615974;27;20517;-83
2023/12/30 17:41:53;;;;;;;27.58;24.45;;;;;;;16.64;100.00;101726.31;10625729;27;20129;-85
2023/12/30 17:47:19;;;;;;;38.30;33.33;;;;;;;16.56;100.00;101720.00;10644190;27;20042;-84
2023/12/30 17:52:41;;;;;;;42.47;34.95;;;;;;;16.50;100.00;101722.63;10622699;27;20470;-86
2023/12/30 17:58:05;;;;;;;62.55;39.65;;;;;;;16.37;100.00;101727.00;10621763;27;20529;-85
2023/12/30 18:03:29;;;;;;;34.65;26.65;;;;;;;16.32;100.00;101726.06;10644707;27;20058;-86
2023/12/30 18:08:51;;;;;;;27.95;21.75;;;;;;;16.24;100.00;101723.34;10607606;27;20039;-87
2023/12/30 18:14:15;;;;;;;26.17;21.85;;;;;;;16.24;100.00;101722.44;10625977;27;20391;-83
2023/12/30 18:19:40;;;;;;;29.20;23.85;;;;;;;16.12;100.00;101715.25;10597568;27;20070;-84
2023/12/30 18:25:04;;;;;;;29.48;22.42;;;;;;;16.03;100.00;101716.94;10600103;27;20054;-84
2023/12/30 18:30:28;;;;;;;19.15;16.25;;;;;;;16.13;100.00;101724.16;10604470;27;20046;-85
2023/12/30 18:35:54;;;;;;;23.48;19.45;;;;;;;16.12;100.00;101725.91;10606354;27;20061;-83
2023/12/30 18:41:18;;;;;;;31.83;22.52;;;;;;;16.09;100.00;101719.66;10623037;27;20047;-84
2023/12/30 18:46:41;;;;;;;26.83;20.55;;;;;;;16.06;100.00;101724.97;10589911;27;20043;-85
2023/12/30 18:52:05;;;;;;;38.55;27.20;;;;;;;16.01;100.00;101732.94;10588835;27;20046;-86
2023/12/30 18:57:28;;;;;;;35.13;22.85;;;;;;;16.00;100.00;101728.47;10576972;28;20078;-84
2023/12/30 19:02:50;;;;;;;27.48;19.85;;;;;;;16.04;100.00;101738.28;10619260;27;20051;-87
2023/12/30 19:08:14;;;;;;;21.45;17.90;;;;;;;15.95;100.00;101732.84;10579208;27;20238;-85
2023/12/30 19:13:37;;;;;;;32.10;26.25;;;;;;;15.93;100.00;101730.19;10569552;27;20135;-87
2023/12/30 19:19:00;;;;;;;61.25;38.60;;;;;;;16.01;100.00;101732.03;10638686;27;20456;-85
2023/12/30 19:24:25;;;;;;;59.13;43.72;;;;;;;16.02;100.00;101720.47;10597304;27;20054;-85
2023/12/30 19:29:49;;;;;;;41.70;28.70;;;;;;;16.00;100.00;101731.13;10614422;27;20039;-89
2023/12/30 19:35:12;;;;;;;70.53;51.65;;;;;;;16.05;100.00;101725.84;10618102;27;20324;-88
2023/12/30 19:40:36;;;;;;;32.20;21.88;;;;;;;16.08;100.00;101724.09;10607574;27;20050;-84
2023/12/30 19:46:00;;;;;;;32.72;19.60;;;;;;;15.99;100.00;101724.03;10607888;27;20059;-87
2023/12/30 19:51:23;;;;;;;16.15;12.15;;;;;;;15.86;100.00;101725.69;10603850;27;20074;-84
2023/12/30 19:56:48;;;;;;;14.75;9.85;;;;;;;15.96;100.00;101734.63;10614383;27;20039;-85
2023/12/30 20:02:13;;;;;;;32.45;25.23;;;;;;;15.90;100.00;101729.25;10601394;27;20051;-84
2023/12/30 20:07:44;;;;;;;35.58;26.75;;;;;;;15.81;100.00;101729.19;10610103;27;20050;-85
2023/12/30 20:13:10;;;;;;;19.52;12.63;;;;;;;15.77;100.00;101728.25;10601907;27;20047;-86
2023/12/30 20:18:33;;;;;;;34.47;21.02;;;;;;;15.73;100.00;101730.88;10603166;27;20050;-86
2023/12/30 20:23:56;;;;;;;15.75;12.93;;;;;;;15.73;100.00;101730.88;10593182;27;20043;-86
2023/12/30 20:29:20;;;;;;;12.30;8.00;;;;;;;15.78;100.00;101740.69;10587994;27;20341;-86
2023/12/30 20:34:42;;;;;;;14.13;10.45;;;;;;;15.83;100.00;101746.06;10584918;27;20387;-85
2023/12/30 20:40:10;;;;;;;22.42;13.75;;;;;;;15.84;100.00;101740.75;10596664;27;20046;-85
2023/12/30 20:45:35;;;;;;;26.35;14.38;;;;;;;15.78;100.00;101730.03;10607416;27;20047;-83
2023/12/30 20:50:58;;;;;;;72.05;62.97;;;;;;;15.71;100.00;101737.94;10607686;27;20138;-84
2023/12/30 20:56:23;;;;;;;14.48;9.68;;;;;;;15.79;100.00;101742.47;10606824;27;20069;-84
2023/12/30 21:01:47;;;;;;;17.33;12.55;;;;;;;15.90;100.00;101739.91;10591481;27;20547;-84
2023/12/30 21:07:12;;;;;;;61.95;50.85;;;;;;;16.02;100.00;101734.69;10592664;27;20061;-85
2023/12/30 21:12:36;;;;;;;39.70;30.95;;;;;;;15.94;100.00;101734.66;10607155;27;20047;-85
2023/12/30 21:18:00;;;;;;;17.48;13.95;;;;;;;15.95;100.00;101730.19;10609145;27;20498;-83
2023/12/30 21:23:23;;;;;;;9.18;6.30;;;;;;;16.02;100.00;101724.03;10591137;27;20043;-83
2023/12/30 21:28:45;;;;;;;10.13;4.20;;;;;;;16.06;100.00;101733.84;10605703;27;20134;-87
2023/12/30 21:34:12;;;;;;;7.82;5.40;;;;;;;16.20;100.00;101736.63;10591056;27;20088;-85
2023/12/30 21:39:36;;;;;;;11.93;8.13;;;;;;;16.34;100.00;101734.97;10562300;28;20058;-87
2023/12/30 21:45:01;;;;;;;13.60;8.60;;;;;;;16.41;100.00;101739.44;10610263;27;20080;-86
2023/12/30 21:50:25;;;;;;;11.90;9.82;;;;;;;16.45;100.00;101746.59;10613714;27;20047;-86
2023/12/30 21:55:48;;;;;;;12.30;7.50;;;;;;;16.54;100.00;101740.47;10633621;27;20042;-86
2023/12/30 22:01:10;;;;;;;15.82;11.50;;;;;;;16.60;100.00;101729.88;10643005;27;20516;-85
2023/12/30 22:06:34;;;;;;;13.23;7.85;;;;;;;16.62;100.00;101723.66;10628043;27;20047;-86
2023/12/30 22:11:58;;;;;;;16.00;9.82;;;;;;;16.73;100.00;101721.06;10591154;27;20054;-85
2023/12/30 22:17:21;;;;;;;7.60;5.00;;;;;;;16.69;100.00;101725.47;10604956;27;20039;-85
2023/12/30 22:22:45;;;;;;;8.15;5.90;;;;;;;16.79;100.00;101715.75;10590222;27;20051;-86
2023/12/30 22:28:09;;;;;;;8.95;5.82;;;;;;;16.79;100.00;101720.19;10604346;27;20043;-85
2023/12/30 22:33:31;;;;;;;12.73;8.60;;;;;;;16.76;100.00;101720.16;10571265;27;20407;-86
2023/12/30 22:38:55;;;;;;;8.93;5.13;;;;;;;16.81;100.00;101708.63;10617083;27;20050;-84
2023/12/30 22:44:17;;;;;;;18.50;13.77;;;;;;;16.83;100.00;101705.97;10588730;27;20075;-84
2023/12/30 22:49:40;;;;;;;12.60;8.00;;;;;;;16.82;100.00;101709.53;10588272;27;20055;-86
2023/12/30 22:55:08;;;;;;;13.85;9.20;;;;;;;16.86;100.00;101700.69;10608007;27;20035;-85
2023/12/30 23:00:33;;;;;;;11.02;6.90;;;;;;;16.85;100.00;101699.78;10646416;27;20039;-84
2023/12/30 23:05:56;;;;;;;8.77;6.05;;;;;;;16.80;100.00;101700.66;10646236;27;20070;-84
2023/12/30 23:11:20;;;;;;;10.70;9.65;;;;;;;16.68;100.00;101702.34;10645387;27;20054;-85
2023/12/30 23:16:44;;;;;;;9.25;6.45;;;;;;;16.58;100.00;101697.81;10631218;27;20128;-87
2023/12/30 23:22:07;;;;;;;8.23;5.72;;;;;;;16.52;100.00;101695.13;10645694;27;20744;-87
2023/12/30 23:27:32;;;;;;;6.25;3.88;;;;;;;16.41;100.00;101691.47;10584457;27;20047;-87
2023/12/30 23:32:54;;;;;;;5.30;3.08;;;;;;;16.22;100.00;101690.47;10588200;28;20044;-87
2023/12/30 23:38:17;;;;;;;9.00;6.35;;;;;;;16.02;100.00;101691.19;10588912;28;20056;-86
2023/12/30 23:43:42;;;;;;;6.25;3.40;;;;;;;15.82;100.00;101699.88;10588139;28;20054;-88
2023/12/30 23:49:04;;;;;;;9.73;4.60;;;;;;;15.62;100.00;101696.13;10591265;27;20490;-87
2023/12/30 23:54:27;;;;;;;8.40;4.97;;;;;;;15.49;100.00;101695.09;10612552;27;20044;-85
2023/12/30 23:59:51;;;;;;;17.63;13.20;;;;;;;15.40;100.00;101694.13;10597120;27;20047;-87
